Time;durP1;ratioP1;P1;durP2;ratioP2;P2;SDS_P1;SDS_P2;PMS_P1;PMS_P2;Temp;Humidity;BMP_temperature;BMP_pressure;BME280_temperature;BME280_humidity;BME280_pressure;Samples;Min_cycle;Max_cycle;Signal;HPM_P1;HPM_P2
2021/07/29 00:01:10;;;;;;;6.57;5.22;;;18.10;77.80;;;17.94;63.25;94897.84;5032991;28;20233;-87
2021/07/29 00:03:37;;;;;;;5.85;5.03;;;18.10;77.90;;;17.92;63.09;94892.78;5033472;28;20203;-87
2021/07/29 00:06:24;;;;;;;9.95;5.43;;;18.10;78.00;;;17.90;63.00;94891.41;5032412;28;20230;-86
2021/07/29 00:08:52;;;;;;;7.88;5.63;;;18.00;77.90;;;17.88;63.60;94891.66;5021890;28;20205;-87
2021/07/29 00:11:20;;;;;;;9.40;5.55;;;18.00;78.00;;;17.87;63.16;94894.53;5013346;28;20335;-88
2021/07/29 00:13:50;;;;;;;7.05;5.47;;;18.00;78.20;;;17.82;63.66;94889.13;5029645;28;20220;-87
2021/07/29 00:16:18;;;;;;;5.88;5.03;;;18.00;79.10;;;17.83;63.74;94888.88;5013382;28;20270;-87
2021/07/29 00:19:04;;;;;;;7.18;5.95;;;18.00;78.10;;;17.81;63.93;94891.00;5045841;28;20212;-87
2021/07/29 00:21:33;;;;;;;6.00;5.40;;;18.00;78.30;;;17.79;63.18;94884.31;5015471;28;20227;-87
2021/07/29 00:24:01;;;;;;;7.13;5.07;;;18.00;78.50;;;17.77;63.42;94877.41;5012907;28;20208;-87
2021/07/29 00:26:29;;;;;;;9.20;5.45;;;18.00;79.20;;;17.76;63.67;94881.09;4996315;28;20236;-87
2021/07/29 00:28:57;;;;;;;8.85;5.38;;;17.90;78.40;;;17.69;63.49;94872.47;5027481;28;20299;-86
2021/07/29 00:31:35;;;;;;;6.38;5.50;;;17.90;78.40;;;17.73;63.49;94884.22;5011647;28;20227;-87
2021/07/29 00:34:04;;;;;;;6.80;5.28;;;18.00;78.90;;;17.71;63.78;94883.66;5012812;28;20574;-88
2021/07/29 00:36:32;;;;;;;10.25;6.45;;;17.90;78.60;;;17.65;63.65;94865.22;5021594;28;20258;-87
2021/07/29 00:38:59;;;;;;;6.38;5.22;;;17.90;79.40;;;17.69;64.02;94883.09;5027909;28;20230;-87
2021/07/29 00:41:26;;;;;;;6.10;5.28;;;17.90;78.60;;;17.67;64.04;94892.31;5029194;28;20270;-87
2021/07/29 00:44:02;;;;;;;6.90;5.55;;;17.80;78.60;;;17.64;63.77;94882.16;5014260;28;20566;-87
2021/07/29 00:46:32;;;;;;;5.97;5.05;;;17.80;79.30;;;17.60;63.60;94881.84;5015821;28;20223;-87
2021/07/29 00:49:01;;;;;;;6.32;5.70;;;17.80;78.80;;;17.63;64.23;94897.28;5028892;28;20204;-88
2021/07/29 00:51:29;;;;;;;6.90;5.00;;;17.90;79.00;;;17.62;63.92;94889.59;5012594;28;20224;-87
2021/07/29 00:53:57;;;;;;;5.97;5.30;;;17.80;78.80;;;17.61;64.30;94896.72;5012812;28;20202;-88
2021/07/29 00:56:25;;;;;;;7.43;5.45;;;17.80;79.00;;;17.61;64.29;94899.38;4995985;28;20267;-87
2021/07/29 00:58:52;;;;;;;7.95;4.85;;;17.70;79.00;;;17.59;64.38;94902.25;5018552;28;20251;-88
2021/07/29 01:01:19;;;;;;;5.45;4.85;;;17.70;79.00;;;17.58;64.38;94899.84;4996094;28;20653;-88
2021/07/29 01:03:46;;;;;;;6.05;5.20;;;17.70;79.00;;;17.57;64.48;94899.03;5004191;28;20722;-87
2021/07/29 01:06:14;;;;;;;6.80;5.50;;;17.70;79.10;;;17.58;64.66;94900.66;4995608;28;20746;-87
2021/07/29 01:09:08;;;;;;;7.03;6.32;;;17.80;79.30;;;17.57;64.49;94896.38;4995992;28;20208;-88
2021/07/29 01:11:41;;;;;;;6.13;5.25;;;17.70;80.40;;;17.58;64.45;94898.00;4999302;28;20251;-87
2021/07/29 01:14:10;;;;;;;5.65;5.07;;;17.80;79.80;;;17.52;64.69;94901.59;5028348;28;20200;-88
2021/07/29 01:16:38;;;;;;;6.82;5.45;;;17.80;79.30;;;17.57;64.88;94900.91;4995861;28;20212;-87
2021/07/29 01:19:07;;;;;;;7.50;5.28;;;17.80;79.50;;;17.53;65.01;94892.59;5012461;28;20300;-87
2021/07/29 01:21:56;;;;;;;7.22;5.40;;;17.70;79.70;;;17.57;65.01;94904.34;5000944;28;20292;-87
2021/07/29 01:24:26;;;;;;;6.30;5.35;;;17.70;79.70;;;17.60;65.72;94905.72;4996187;28;20296;-86
2021/07/29 01:26:54;;;;;;;7.47;5.50;;;17.80;80.10;;;17.62;65.76;94900.19;5026839;28;20312;-87
2021/07/29 01:29:21;;;;;;;7.20;5.40;;;17.80;80.20;;;17.57;65.93;94896.38;5012481;28;20197;-87
2021/07/29 01:31:49;;;;;;;7.10;5.25;;;17.70;80.10;;;17.64;65.41;94898.91;5006277;28;20200;-87
2021/07/29 01:34:17;;;;;;;6.93;5.40;;;17.80;80.10;;;17.56;65.82;94888.66;5025916;28;20197;-87
2021/07/29 01:36:45;;;;;;;7.55;5.30;;;17.80;80.10;;;17.61;65.35;94891.41;5012287;28;20200;-87
2021/07/29 01:39:14;;;;;;;6.45;5.50;;;17.70;80.10;;;17.61;65.67;94891.41;4996060;28;20692;-87
2021/07/29 01:41:42;;;;;;;6.22;5.40;;;17.80;80.10;;;17.60;65.26;94892.44;5019195;28;20281;-87
2021/07/29 01:44:09;;;;;;;5.30;4.80;;;17.70;80.10;;;17.57;65.43;94882.31;5032686;28;20755;-87
2021/07/29 01:46:36;;;;;;;6.18;5.22;;;17.90;80.20;;;17.57;65.50;94884.97;5035335;28;20250;-86
2021/07/29 01:49:03;;;;;;;6.60;5.30;;;17.80;80.10;;;17.55;66.10;94885.22;5018258;28;20310;-87
2021/07/29 01:51:30;;;;;;;7.55;5.43;;;17.80;80.10;;;17.61;65.83;94891.41;5001426;28;20230;-88
2021/07/29 01:53:57;;;;;;;5.68;4.90;;;17.80;80.10;;;17.60;65.84;94901.22;5015809;28;20224;-88
2021/07/29 01:56:25;;;;;;;5.60;4.97;;;17.70;80.10;;;17.59;65.53;94894.31;5015650;28;20308;-87
2021/07/29 01:58:52;;;;;;;5.63;4.93;;;17.80;80.10;;;17.59;65.49;94904.91;4999500;28;20292;-87
2021/07/29 02:01:21;;;;;;;6.75;4.80;;;17.80;80.10;;;17.58;65.74;94905.16;4999464;28;20271;-88
2021/07/29 02:03:49;;;;;;;6.10;5.20;;;17.80;80.10;;;17.57;65.63;94908.84;5018608;28;20291;-87
2021/07/29 02:06:17;;;;;;;7.68;5.57;;;17.70;80.10;;;17.57;66.26;94911.50;5035049;28;20226;-87
2021/07/29 02:08:44;;;;;;;5.60;5.00;;;17.80;80.10;;;17.56;65.79;94909.88;5018220;28;20223;-87
2021/07/29 02:11:11;;;;;;;5.47;4.63;;;17.70;80.10;;;17.54;65.35;94899.53;5003090;28;20220;-87
2021/07/29 02:13:38;;;;;;;5.82;4.82;;;17.70;80.10;;;17.52;65.80;94898.16;5031367;28;20200;-87
2021/07/29 02:16:13;;;;;;;6.00;4.60;;;17.70;80.10;;;17.52;65.61;94904.25;5016521;28;20216;-87
2021/07/29 02:18:40;;;;;;;5.90;4.90;;;17.70;80.10;;;17.49;65.54;94895.94;5015155;28;20203;-87
2021/07/29 02:21:11;;;;;;;5.57;4.55;;;17.70;80.10;;;17.47;65.65;94901.50;5015425;28;20311;-88
2021/07/29 02:23:40;;;;;;;5.57;4.95;;;17.70;80.10;;;17.48;65.87;94903.13;5033107;28;20196;-87
2021/07/29 02:26:07;;;;;;;7.03;4.40;;;17.70;80.00;;;17.41;65.76;94897.94;5017489;28;20464;-87
2021/07/29 02:28:34;;;;;;;5.53;4.55;;;17.70;80.10;;;17.43;65.68;94905.63;5050896;28;20651;-87
2021/07/29 02:31:01;;;;;;;5.72;4.78;;;17.60;80.00;;;17.43;65.81;94903.00;5016418;28;20224;-87
2021/07/29 02:33:29;;;;;;;5.32;4.72;;;17.70;80.00;;;17.43;66.07;94901.16;5034869;28;20210;-87
2021/07/29 02:35:56;;;;;;;6.45;5.15;;;17.60;80.00;;;17.42;65.87;94912.81;5034308;28;20247;-87
2021/07/29 02:38:23;;;;;;;5.07;4.40;;;17.60;80.00;;;17.43;66.08;94911.78;5016121;28;20269;-86
2021/07/29 02:40:51;;;;;;;5.40;4.90;;;17.60;80.00;;;17.44;66.30;94916.03;5014532;28;20299;-86
2021/07/29 02:43:18;;;;;;;5.15;4.65;;;17.60;80.00;;;17.38;66.16;94902.91;5014542;28;20243;-87
2021/07/29 02:45:45;;;;;;;5.38;4.68;;;17.60;80.00;;;17.45;66.03;94908.88;5018187;28;20208;-87
2021/07/29 02:48:12;;;;;;;6.40;4.78;;;17.60;80.10;;;17.45;65.82;94906.22;5050819;28;20215;-87
2021/07/29 02:50:39;;;;;;;5.35;4.60;;;17.60;80.80;;;17.42;66.26;94912.81;5016249;28;20221;-87
2021/07/29 02:53:07;;;;;;;6.22;5.03;;;17.60;80.00;;;17.45;65.89;94919.47;5014338;28;20212;-88
2021/07/29 02:55:34;;;;;;;5.25;4.60;;;17.60;80.00;;;17.41;66.35;94907.75;5026871;28;20220;-86
2021/07/29 02:58:01;;;;;;;5.10;4.43;;;17.60;80.00;;;17.44;65.87;94912.56;5017242;28;20247;-86
2021/07/29 03:00:28;;;;;;;5.90;4.75;;;17.60;80.00;;;17.42;65.87;94912.00;5017321;28;20242;-87
2021/07/29 03:02:56;;;;;;;5.50;4.53;;;17.70;80.10;;;17.45;65.93;94908.88;5034134;28;20653;-86
2021/07/29 03:05:24;;;;;;;4.97;4.47;;;17.60;80.10;;;17.46;66.26;94913.13;5033753;28;20264;-87
2021/07/29 03:07:51;;;;;;;5.65;4.60;;;17.70;80.30;;;17.48;66.06;94913.72;5031685;28;20231;-86
2021/07/29 03:10:18;;;;;;;4.82;4.32;;;17.60;80.30;;;17.50;66.00;94916.13;5034392;28;20358;-87
2021/07/29 03:12:45;;;;;;;5.03;4.53;;;17.60;80.20;;;17.46;66.11;94907.84;5025103;28;20196;-85
2021/07/29 03:15:12;;;;;;;4.80;4.30;;;17.60;80.20;;;17.52;65.92;94908.75;5009090;28;20685;-86
2021/07/29 03:17:40;;;;;;;5.10;4.40;;;17.60;80.20;;;17.51;65.87;94907.13;5009504;28;20200;-86
2021/07/29 03:20:08;;;;;;;5.20;4.63;;;17.60;80.00;;;17.54;65.98;94909.31;5026401;28;20209;-86
2021/07/29 03:22:35;;;;;;;5.07;4.57;;;17.60;80.00;;;17.52;66.37;94906.09;5000908;28;20207;-86
2021/07/29 03:25:02;;;;;;;4.55;4.10;;;17.70;80.20;;;17.52;66.25;94906.91;5003197;28;20270;-86
2021/07/29 03:27:29;;;;;;;4.75;4.25;;;17.60;80.00;;;17.56;66.11;94918.63;5013325;28;20323;-86
2021/07/29 03:29:57;;;;;;;4.97;4.18;;;17.70;80.10;;;17.55;66.05;94916.22;4981062;28;20304;-86
2021/07/29 03:32:24;;;;;;;4.43;4.03;;;17.70;80.10;;;17.52;65.80;94920.16;5011611;28;20193;-86
2021/07/29 03:34:52;;;;;;;4.93;4.43;;;17.70;80.10;;;17.54;65.55;94922.56;5015044;28;20220;-87
2021/07/29 03:37:19;;;;;;;6.43;4.07;;;17.60;80.00;;;17.55;66.01;94922.34;4996149;28;20383;-86
2021/07/29 03:39:46;;;;;;;4.25;3.67;;;17.70;80.10;;;17.53;65.61;94915.66;5020284;28;20274;-87
2021/07/29 03:42:13;;;;;;;4.97;3.67;;;17.70;80.10;;;17.58;65.53;94919.22;5011986;28;20201;-86
2021/07/29 03:44:40;;;;;;;4.82;4.32;;;17.70;80.10;;;17.63;65.97;94925.69;5000913;28;20254;-87
2021/07/29 03:47:07;;;;;;;6.13;4.28;;;17.70;80.10;;;17.62;65.76;94922.19;4991840;28;20227;-86
2021/07/29 03:49:35;;;;;;;4.68;3.63;;;17.70;80.10;;;17.65;65.54;94928.88;4983927;28;20690;-86
2021/07/29 03:52:03;;;;;;;4.65;4.05;;;17.80;80.20;;;17.65;65.87;94920.91;5012486;28;20224;-86
2021/07/29 03:54:31;;;;;;;5.70;3.70;;;17.70;80.10;;;17.66;65.56;94927.84;4982327;28;20307;-86
2021/07/29 03:56:59;;;;;;;5.32;4.47;;;17.70;80.10;;;17.66;65.46;94935.81;5004330;28;20246;-88
2021/07/29 03:59:26;;;;;;;4.60;3.85;;;17.80;80.20;;;17.64;65.41;94930.72;5026384;28;20216;-88
2021/07/29 04:01:53;;;;;;;3.67;3.38;;;17.70;80.10;;;17.66;65.67;94931.28;5009145;28;20247;-88
2021/07/29 04:04:20;;;;;;;4.50;3.78;;;17.80;80.10;;;17.67;65.80;94935.56;5020474;28;20242;-88
2021/07/29 04:06:47;;;;;;;4.22;3.70;;;17.80;80.10;;;17.70;65.74;94937.75;5013359;28;20412;-87
2021/07/29 04:09:15;;;;;;;5.70;4.20;;;17.80;80.20;;;17.74;66.15;94930.13;5027916;28;20275;-86
2021/07/29 04:11:42;;;;;;;4.20;3.80;;;17.80;80.20;;;17.82;65.93;94943.03;5029738;28;20196;-87
2021/07/29 04:14:09;;;;;;;7.20;3.78;;;17.80;80.30;;;17.87;65.87;94944.94;5028828;28;20188;-86
2021/07/29 04:16:36;;;;;;;4.28;3.80;;;17.80;80.30;;;17.91;65.64;94938.94;5015770;28;20192;-88
2021/07/29 04:19:03;;;;;;;4.20;3.60;;;17.90;80.40;;;17.91;65.58;94930.97;5014999;28;20205;-87
2021/07/29 04:21:31;;;;;;;4.68;4.15;;;18.00;80.40;;;18.01;65.46;94940.19;4995751;28;20357;-87
2021/07/29 04:23:58;;;;;;;5.68;3.80;;;18.00;80.30;;;18.06;65.77;94934.97;5007504;28;20204;-87
2021/07/29 04:26:25;;;;;;;4.20;3.80;;;18.00;80.30;;;18.12;65.13;94938.53;5017763;28;20209;-87
2021/07/29 04:28:52;;;;;;;4.85;3.90;;;18.10;80.30;;;18.12;65.48;94934.03;5011801;28;20207;-86
2021/07/29 04:31:19;;;;;;;4.45;3.60;;;18.10;80.40;;;18.20;65.42;94944.25;5015169;28;20212;-87
2021/07/29 04:33:46;;;;;;;4.38;3.83;;;18.20;80.40;;;18.25;65.08;94946.22;4997225;28;20213;-87
2021/07/29 04:36:13;;;;;;;3.83;3.45;;;18.20;80.40;;;18.29;65.41;94947.31;5009554;28;20683;-88
2021/07/29 04:38:41;;;;;;;4.03;3.63;;;18.20;80.40;;;18.32;65.38;94938.91;5009559;28;20247;-87
2021/07/29 04:41:08;;;;;;;4.15;3.50;;;18.30;80.50;;;18.43;65.04;94949.69;5009520;28;20216;-88
2021/07/29 04:43:35;;;;;;;4.22;3.53;;;18.30;80.50;;;18.46;64.82;94946.56;5007314;28;20289;-87
2021/07/29 04:46:04;;;;;;;3.70;3.40;;;18.40;80.60;;;18.42;65.31;94932.94;4996049;28;20595;-88
2021/07/29 04:48:32;;;;;;;4.60;4.20;;;18.40;80.60;;;18.48;65.19;94936.47;5012279;28;20239;-87
2021/07/29 04:51:04;;;;;;;4.43;3.70;;;18.50;80.70;;;18.59;64.87;94942.75;5012589;28;20558;-87
2021/07/29 04:53:33;;;;;;;5.13;3.83;;;18.50;80.60;;;18.65;65.15;94942.63;5004127;28;20196;-87
2021/07/29 04:56:02;;;;;;;4.38;3.70;;;18.50;81.00;;;18.67;65.13;94929.88;5013217;28;20228;-88
2021/07/29 04:58:30;;;;;;;3.83;3.30;;;18.60;81.50;;;18.77;65.06;94942.50;5014146;28;20212;-88
2021/07/29 05:01:04;;;;;;;4.22;3.83;;;18.70;80.80;;;18.84;65.10;94945.00;5029206;28;20216;-88
2021/07/29 05:03:31;;;;;;;4.20;3.80;;;18.70;80.80;;;18.89;64.91;94934.47;4996504;28;20218;-88
2021/07/29 05:06:02;;;;;;;5.70;3.42;;;18.80;80.80;;;18.94;65.09;94931.91;5012387;28;20220;-89
2021/07/29 05:08:31;;;;;;;4.45;4.00;;;18.80;80.90;;;19.00;65.05;94935.44;5009570;28;20315;-89
2021/07/29 05:11:03;;;;;;;4.40;3.97;;;18.90;80.90;;;19.04;65.09;94932.06;5031793;28;20224;-88
2021/07/29 05:13:33;;;;;;;4.40;4.00;;;18.90;80.90;;;19.07;65.09;94922.78;5015675;28;20867;-88
2021/07/29 05:16:07;;;;;;;4.18;3.78;;;19.00;81.00;;;19.13;64.84;94923.66;5013374;28;20306;-88
2021/07/29 05:18:35;;;;;;;4.28;3.70;;;19.00;80.90;;;19.23;64.83;94923.00;5034408;28;20198;-87
2021/07/29 05:21:06;;;;;;;4.38;3.40;;;19.10;80.90;;;19.27;64.99;94924.09;5009879;28;20271;-88
2021/07/29 05:23:34;;;;;;;4.85;3.55;;;19.10;81.00;;;19.33;65.02;94921.28;5016304;28;20200;-87
2021/07/29 05:26:02;;;;;;;4.82;3.55;;;19.20;81.10;;;19.43;64.60;94923.25;5031660;28;20252;-88
2021/07/29 05:28:29;;;;;;;4.47;3.70;;;19.20;81.10;;;19.50;64.92;94926.50;5030683;28;20243;-88
2021/07/29 05:30:58;;;;;;;4.00;3.60;;;19.40;81.10;;;19.56;64.88;94932.72;5035727;28;20700;-87
2021/07/29 05:33:25;;;;;;;3.83;3.50;;;19.30;81.00;;;19.59;64.46;94920.75;5035993;28;20216;-88
2021/07/29 05:35:52;;;;;;;3.67;3.38;;;19.40;80.90;;;19.65;64.25;94917.09;5000340;28;20224;-88
2021/07/29 05:38:20;;;;;;;5.30;3.60;;;19.50;80.80;;;19.73;64.84;94924.66;5031500;28;20650;-88
2021/07/29 05:40:47;;;;;;;3.83;3.45;;;19.60;81.10;;;19.85;64.68;94927.22;5018779;28;20757;-88
2021/07/29 05:43:15;;;;;;;4.25;3.47;;;19.60;80.90;;;19.93;64.28;94921.47;5013923;28;20203;-88
2021/07/29 05:45:42;;;;;;;4.18;3.60;;;19.70;80.60;;;19.97;63.53;94922.56;5015437;28;20217;-87
2021/07/29 05:48:09;;;;;;;4.30;3.50;;;19.80;80.30;;;20.03;63.90;94926.09;5014450;28;20757;-87
2021/07/29 05:50:37;;;;;;;4.20;3.80;;;19.80;80.00;;;20.11;63.70;94928.28;5016382;28;20228;-87
2021/07/29 05:53:04;;;;;;;6.18;4.05;;;19.90;80.00;;;20.17;63.88;94925.69;5006757;28;20278;-88
2021/07/29 05:55:32;;;;;;;5.10;3.70;;;19.90;80.00;;;20.18;63.66;94913.94;4997562;28;20216;-88
2021/07/29 05:58:01;;;;;;;4.18;3.70;;;20.00;80.00;;;20.27;64.01;94921.22;5007017;28;20278;-88
2021/07/29 06:00:28;;;;;;;4.15;3.63;;;20.10;80.10;;;20.33;63.40;94930.06;5007165;28;20216;-88
2021/07/29 06:02:57;;;;;;;4.38;3.97;;;20.10;80.00;;;20.38;63.10;94924.78;4997811;28;20595;-85
2021/07/29 06:05:24;;;;;;;4.10;3.70;;;20.20;80.00;;;20.41;63.28;94910.97;5031645;28;20334;-85
2021/07/29 06:07:51;;;;;;;5.15;3.42;;;20.20;80.00;;;20.50;63.73;94913.97;5016202;28;20228;-86
2021/07/29 06:10:18;;;;;;;4.25;3.85;;;20.20;80.00;;;20.59;63.37;94912.47;5000474;28;20223;-86
2021/07/29 06:12:47;;;;;;;4.32;3.92;;;20.30;79.90;;;20.66;63.31;94912.22;5032909;28;20287;-86
2021/07/29 06:15:14;;;;;;;4.13;3.72;;;20.30;79.80;;;20.69;63.02;94911.72;5001161;28;20279;-87
2021/07/29 06:17:45;;;;;;;4.32;3.92;;;20.50;79.60;;;20.77;63.30;94918.47;5034541;28;20664;-87
2021/07/29 06:20:12;;;;;;;4.28;3.70;;;20.50;79.60;;;20.82;63.31;94923.81;5001856;28;20278;-86
2021/07/29 06:22:39;;;;;;;4.30;3.85;;;20.60;79.70;;;20.88;62.86;94928.13;4998821;28;20674;-86
2021/07/29 06:25:08;;;;;;;5.07;4.03;;;20.60;79.70;;;20.97;63.28;94933.81;4999372;28;20768;-86
2021/07/29 06:27:37;;;;;;;4.53;4.13;;;20.70;80.60;;;21.04;63.04;94934.38;5023916;28;20690;-85
2021/07/29 06:30:05;;;;;;;4.70;4.18;;;20.80;79.80;;;21.11;62.24;94942.16;5014727;28;20216;-84
2021/07/29 06:32:33;;;;;;;5.22;4.43;;;20.80;79.40;;;21.18;62.55;94933.91;5022650;28;20448;-86
2021/07/29 06:35:00;;;;;;;5.93;4.50;;;20.90;79.40;;;21.23;62.10;94949.97;5008697;28;20224;-85
2021/07/29 06:37:28;;;;;;;5.55;5.05;;;20.90;79.10;;;21.27;61.77;94938.50;5018379;28;20193;-86
2021/07/29 06:39:57;;;;;;;5.65;4.50;;;21.00;79.00;;;21.30;61.73;94937.19;5022197;28;20221;-86
2021/07/29 06:42:24;;;;;;;5.72;4.85;;;21.00;78.80;;;21.39;61.65;94938.31;5022537;28;20235;-85
2021/07/29 06:44:51;;;;;;;5.97;5.20;;;21.10;78.70;;;21.47;61.65;94933.53;5024029;28;20224;-86
2021/07/29 06:47:24;;;;;;;6.57;5.38;;;21.10;78.80;;;21.55;61.86;94939.16;5008009;28;20662;-85
2021/07/29 06:49:53;;;;;;;6.03;4.65;;;21.20;79.00;;;21.64;61.44;94954.72;5025844;28;20558;-85
2021/07/29 06:52:20;;;;;;;5.65;5.15;;;21.30;78.70;;;21.70;60.84;94943.81;4992355;28;20246;-86
2021/07/29 06:54:47;;;;;;;5.97;5.38;;;21.40;78.20;;;21.79;60.85;94948.63;5022768;28;20220;-86
2021/07/29 06:57:14;;;;;;;5.82;4.82;;;21.40;78.30;;;21.88;60.60;94953.19;5019702;28;20315;-86
2021/07/29 06:59:41;;;;;;;5.68;5.07;;;21.50;78.10;;;21.94;60.15;94955.91;5021551;28;20226;-86
2021/07/29 07:02:10;;;;;;;4.80;4.30;;;21.60;77.80;;;22.04;60.23;94959.38;5014400;28;20217;-85
2021/07/29 07:04:38;;;;;;;5.00;4.50;;;21.70;78.10;;;22.11;59.34;94955.69;5018894;28;20239;-86
2021/07/29 07:07:16;;;;;;;5.50;5.00;;;21.70;77.40;;;22.16;59.42;94961.84;5008761;28;20599;-86
2021/07/29 07:09:44;;;;;;;4.78;4.30;;;21.80;77.20;;;22.26;59.87;94957.59;5012247;28;20751;-86
2021/07/29 07:12:12;;;;;;;6.10;4.50;;;21.90;77.50;;;22.28;59.60;94950.91;4997701;28;20217;-87
2021/07/29 07:14:39;;;;;;;4.85;4.45;;;22.00;77.50;;;22.39;59.68;94959.78;4981521;28;20231;-87
2021/07/29 07:17:07;;;;;;;5.38;4.72;;;22.00;77.30;;;22.48;59.33;94952.81;4997644;28;20211;-87
2021/07/29 07:19:35;;;;;;;5.20;4.70;;;22.10;77.20;;;22.56;59.39;94956.84;4997373;28;20225;-87
2021/07/29 07:22:05;;;;;;;5.10;4.30;;;22.20;77.10;;;22.60;58.15;94941.09;4998389;28;20584;-87
2021/07/29 07:24:34;;;;;;;5.07;4.57;;;22.20;76.30;;;22.62;57.91;94937.06;4997478;28;20297;-87
2021/07/29 07:27:05;;;;;;;5.03;4.53;;;22.30;75.90;;;22.67;57.65;94937.06;5013493;28;20263;-86
2021/07/29 07:29:35;;;;;;;5.20;4.38;;;22.30;75.60;;;22.74;57.99;94934.13;5013810;28;20251;-85
2021/07/29 07:32:03;;;;;;;4.22;3.83;;;22.40;75.80;;;22.82;58.67;94932.78;5013384;28;20343;-85
2021/07/29 07:34:30;;;;;;;5.78;4.68;;;22.40;76.20;;;22.88;57.65;94928.25;5029551;28;20650;-86
2021/07/29 07:36:58;;;;;;;6.70;4.35;;;22.50;75.80;;;22.94;57.92;94921.81;5012739;28;20249;-86
2021/07/29 07:39:25;;;;;;;4.80;4.40;;;22.50;76.10;;;23.03;57.83;94920.19;4997202;28;20199;-86
2021/07/29 07:41:55;;;;;;;4.85;4.20;;;22.60;75.90;;;23.11;58.06;94921.53;5028639;28;20198;-85
2021/07/29 07:44:23;;;;;;;4.28;3.72;;;22.70;76.10;;;23.21;58.49;94907.34;5013157;28;20201;-85
2021/07/29 07:46:50;;;;;;;5.65;4.30;;;22.70;76.40;;;23.32;58.28;94911.59;5009480;28;20281;-86
2021/07/29 07:49:17;;;;;;;5.00;4.50;;;22.80;75.90;;;23.38;57.40;94913.16;5013006;28;20283;-85
2021/07/29 07:51:44;;;;;;;4.30;3.90;;;22.90;75.50;;;23.46;57.54;94912.63;5014677;28;20200;-85
2021/07/29 07:54:13;;;;;;;6.10;4.68;;;23.00;75.70;;;23.52;57.15;94916.06;5025265;28;20192;-85
2021/07/29 07:56:43;;;;;;;4.70;4.20;;;23.00;75.20;;;23.57;55.78;94907.19;5019750;28;20224;-85
2021/07/29 07:59:12;;;;;;;5.15;3.85;;;23.10;73.90;;;23.63;55.53;94911.47;4996664;28;20229;-86
2021/07/29 08:01:40;;;;;;;4.63;4.22;;;23.10;73.80;;;23.66;54.43;94908.25;5012308;28;20243;-86
2021/07/29 08:04:07;;;;;;;4.80;4.18;;;23.20;73.10;;;23.72;54.38;94917.84;4998825;28;20708;-85
2021/07/29 08:06:37;;;;;;;3.92;3.38;;;23.30;72.90;;;23.82;55.01;94911.66;5027412;28;20196;-85
2021/07/29 08:09:04;;;;;;;4.07;3.67;;;23.30;73.50;;;23.88;55.29;94913.22;5027875;28;20635;-86
2021/07/29 08:11:32;;;;;;;4.13;3.72;;;23.40;73.60;;;24.01;55.33;94916.41;5011822;28;20240;-86
2021/07/29 08:13:59;;;;;;;4.15;3.72;;;23.50;73.80;;;24.09;55.53;94913.94;5028469;28;20200;-86
2021/07/29 08:16:26;;;;;;;3.67;3.38;;;23.60;73.50;;;24.21;54.98;94920.84;5012095;28;20292;-86
2021/07/29 08:18:56;;;;;;;4.40;4.00;;;23.60;73.20;;;24.26;54.23;94905.50;5012102;28;20232;-86
2021/07/29 08:21:23;;;;;;;4.57;3.83;;;23.70;72.70;;;24.34;53.42;94911.34;5027854;28;20236;-85
2021/07/29 08:23:50;;;;;;;4.15;3.78;;;23.80;72.10;;;24.38;53.83;94904.38;5015308;28;20216;-84
2021/07/29 08:26:17;;;;;;;4.30;3.90;;;23.80;72.00;;;24.46;53.76;94917.16;5015509;28;20306;-85
2021/07/29 08:28:45;;;;;;;4.70;4.10;;;23.90;72.30;;;24.48;52.28;94901.59;5048586;28;20247;-85
2021/07/29 08:31:14;;;;;;;5.20;4.15;;;24.00;71.10;;;24.51;52.21;94898.38;4998279;28;20306;-86
2021/07/29 08:33:42;;;;;;;4.30;3.90;;;24.00;70.80;;;24.58;52.92;94900.72;5015545;28;20207;-85
2021/07/29 08:36:27;;;;;;;4.28;3.88;;;24.10;71.20;;;24.67;53.09;94890.22;5031408;28;20212;-85
2021/07/29 08:38:54;;;;;;;4.60;4.20;;;24.10;71.30;;;24.72;52.71;94895.56;5014313;28;20191;-85
2021/07/29 08:41:22;;;;;;;4.07;3.72;;;24.20;71.20;;;24.75;51.87;94895.75;5032003;28;20311;-85
2021/07/29 08:43:49;;;;;;;6.93;4.20;;;24.30;70.60;;;24.86;52.62;94890.31;5015475;28;20408;-85
2021/07/29 08:46:19;;;;;;;5.10;4.35;;;24.30;71.10;;;24.89;52.45;94887.06;4998965;28;20222;-85
2021/07/29 08:48:51;;;;;;;4.07;3.67;;;24.40;70.70;;;24.99;52.65;94892.34;4999254;28;20224;-85
2021/07/29 08:51:24;;;;;;;4.30;3.90;;;24.40;71.10;;;25.04;51.52;94886.91;5014774;28;20247;-84
2021/07/29 08:53:53;;;;;;;4.28;3.88;;;24.50;70.00;;;25.06;50.61;94889.31;5001718;28;20218;-86
2021/07/29 08:56:24;;;;;;;4.43;3.88;;;24.50;69.80;;;25.09;50.85;94892.22;5003098;28;20665;-84
2021/07/29 08:58:53;;;;;;;4.28;3.88;;;24.60;69.40;;;25.09;49.82;94886.84;5035617;28;20196;-84
2021/07/29 09:01:41;;;;;;;4.13;3.72;;;24.60;68.70;;;25.10;50.72;94890.34;5035968;28;20703;-83
2021/07/29 09:04:16;;;;;;;4.32;3.92;;;24.60;69.50;;;25.19;50.43;94887.84;5019408;28;20284;-84
2021/07/29 09:07:02;;;;;;;4.38;3.97;;;24.70;68.60;;;25.21;49.48;94891.84;5019169;28;20221;-84
2021/07/29 09:09:52;;;;;;;4.50;4.10;;;24.80;68.60;;;25.24;48.41;94891.28;5019077;28;20337;-84
2021/07/29 09:12:24;;;;;;;4.30;3.90;;;24.80;67.30;;;25.26;48.98;94889.09;5020326;28;20207;-85
2021/07/29 09:14:54;;;;;;;4.28;3.88;;;24.90;68.20;;;25.40;49.32;94894.63;5035248;28;20220;-84
2021/07/29 09:17:23;;;;;;;4.43;4.03;;;24.90;68.10;;;25.54;50.24;94889.34;5001526;28;20459;-84
2021/07/29 09:19:53;;;;;;;4.40;4.00;;;24.90;69.10;;;25.69;49.05;94891.03;5017669;28;20279;-84
2021/07/29 09:22:30;;;;;;;4.75;4.15;;;25.00;67.80;;;25.78;48.96;94893.88;5017513;28;20220;-85
2021/07/29 09:25:12;;;;;;;5.32;4.22;;;25.10;67.40;;;25.85;48.90;94894.34;5034440;28;20217;-85
2021/07/29 09:27:43;;;;;;;3.92;3.63;;;25.30;67.90;;;25.95;49.92;94892.56;5034551;28;20206;-86
2021/07/29 09:30:33;;;;;;;3.92;3.60;;;25.40;68.00;;;26.05;49.33;94893.25;5034777;28;20225;-86
2021/07/29 09:33:12;;;;;;;4.35;3.95;;;25.40;68.00;;;26.12;48.94;94892.09;4998571;28;20577;-84
2021/07/29 09:35:53;;;;;;;4.18;3.78;;;25.60;67.70;;;26.18;48.91;94888.25;5011806;28;20284;-85
2021/07/29 09:38:26;;;;;;;4.20;3.80;;;25.70;67.80;;;26.24;48.85;94886.28;5000950;28;20207;-85
2021/07/29 09:41:06;;;;;;;4.35;3.95;;;25.70;67.20;;;26.32;49.13;94883.72;5015104;28;20236;-85
2021/07/29 09:43:36;;;;;;;5.10;3.75;;;25.80;67.60;;;26.39;48.71;94885.25;5014307;28;20698;-84
2021/07/29 09:46:19;;;;;;;5.10;4.20;;;25.80;67.60;;;26.44;48.28;94887.84;5030234;28;20219;-85
2021/07/29 09:48:49;;;;;;;4.57;3.97;;;25.90;67.50;;;26.48;48.61;94880.81;4998292;28;20665;-86
2021/07/29 09:51:17;;;;;;;4.55;3.85;;;25.90;67.10;;;26.56;47.57;94880.13;5013504;28;20220;-86
2021/07/29 09:53:44;;;;;;;4.20;3.80;;;26.00;66.70;;;26.65;47.51;94872.19;5012040;28;20203;-85
2021/07/29 09:56:14;;;;;;;6.05;4.03;;;26.10;66.80;;;26.79;48.49;94867.69;4997057;28;20206;-87
2021/07/29 09:59:03;;;;;;;5.25;3.95;;;26.10;67.40;;;27.12;48.26;94867.63;4994606;28;20201;-86
2021/07/29 10:01:31;;;;;;;4.07;3.67;;;26.20;67.50;;;27.42;47.99;94868.13;5017105;28;20698;-85
2021/07/29 10:04:01;;;;;;;4.47;4.07;;;26.40;67.50;;;27.61;46.43;94869.91;4999465;28;20257;-85
2021/07/29 10:06:35;;;;;;;5.07;4.30;;;26.60;66.50;;;27.76;45.49;94868.81;5008993;28;20234;-86
2021/07/29 10:09:12;;;;;;;4.63;4.20;;;26.80;65.10;;;27.86;45.51;94873.97;5029395;28;20233;-85
2021/07/29 10:11:46;;;;;;;3.97;3.65;;;27.00;64.80;;;27.93;44.78;94868.97;4992315;28;20205;-85
2021/07/29 10:14:13;;;;;;;4.57;4.15;;;27.10;64.90;;;28.01;45.02;94875.50;5022414;28;20186;-86
2021/07/29 10:16:49;;;;;;;5.03;4.60;;;27.20;64.40;;;28.06;44.72;94877.34;5004005;28;20214;-85
2021/07/29 10:19:17;;;;;;;4.90;4.40;;;27.40;63.90;;;28.07;44.13;94873.53;5015530;28;20258;-85
2021/07/29 10:21:46;;;;;;;4.22;3.83;;;27.40;63.20;;;28.10;43.94;94872.94;5013783;28;20232;-85
2021/07/29 10:24:14;;;;;;;4.22;3.83;;;27.50;63.10;;;28.15;44.07;94866.63;5009492;28;20252;-84
2021/07/29 10:26:59;;;;;;;4.13;3.72;;;27.50;63.40;;;28.23;44.45;94864.00;5017448;28;20301;-85
2021/07/29 10:29:30;;;;;;;4.18;3.55;;;27.60;64.00;;;28.35;45.00;94863.44;5030207;28;20208;-85